Portada
METAR-TAF:

METAR-TAF

Aeroports :

Kars, Turquia

latitud: 40-36N, longitud: 043-05E, altitud: 1775 m

Observació

L'informe es va fer fa 43 minuts, a les 00:50 UTC
Vent 1 kt amb direcció variable
Temperatura -26°C
Humitat 76%
Pressió 1027 hPa
Visibilitat: 6000 m

METAR: LTCF 230050Z VRB01KT 6000 NSC M26/M29 Q1027

Hora: 04:33 (01:33 UTC)

Pronòstic

L'informe es va fer fa 2 hores i 53 minuts, a les 22:40 UTC
Pronòstic vàlid del 23 a les 00 UTC al 23 a les 09 UTC
Vent 2 kt amb direcció variable
Visibilitat: 6000 m
Evolucionant progressivament
l' 23 a les 00 UTC al 23 a les 02 UTC
Visibilitat: 4000 m
boirina
Probabilitat 40%
l' 23 a les 03 UTC al 23 a les 06 UTC
Visibilitat: 1600 m
boira en bancs
Evolucionant progressivament
l' 23 a les 06 UTC al 23 a les 08 UTC
Visibilitat: 6000 m

TAF: LTCF 222240Z 2300/2309 VRB02KT 6000 NSC BECMG 2300/2302 4000 BR PROB40 2303/2306 1600 BCFG BECMG 2306/2308 6000

Observacions i pronòstics meteorològics de més de 4000 aeroports (METAR i TAF).

Les estacions disponibles són els punts grocs i vermells al mapa.

Posi el ratolí al punt desitjat per veure el nom de l'estació.

Feu clic per veure les observacions i els pronòstics meteorològics.

Per canviar el mapa: feu clic els botons verds amb una creu de color negre per apropar; al botó verd amb un guió per allunyar la imatge; o en les fletxes verdes per a mapes adjacents.


METAR-TAF: